Time;durP1;ratioP1;P1;durP2;ratioP2;P2;SDS_P1;SDS_P2;PMS_P1;PMS_P2;Temp;Humidity;BMP_temperature;BMP_pressure;BME280_temperature;BME280_humidity;BME280_pressure;Samples;Min_cycle;Max_cycle;Signal;HPM_P1;HPM_P2
2022/07/11 00:00:29;;;;;;;2.85;1.98;;;;;;;12.17;88.23;100635.53;1772656;80;27445;-85
2022/07/11 00:02:58;;;;;;;6.10;1.55;;;;;;;12.20;88.25;100632.47;1752293;81;25833;-84
2022/07/11 00:05:24;;;;;;;4.70;1.35;;;;;;;12.19;88.19;100634.31;1776655;80;26702;-83
2022/07/11 00:07:50;;;;;;;6.53;1.50;;;;;;;12.20;88.32;100635.98;1757308;81;25826;-84
2022/07/11 00:10:17;;;;;;;4.58;1.67;;;;;;;12.20;88.21;100631.13;1757727;81;25286;-83
2022/07/11 00:12:43;;;;;;;4.62;1.47;;;;;;;12.20;88.32;100629.27;1777760;80;27416;-83
2022/07/11 00:15:10;;;;;;;1.37;1.27;;;;;;;12.21;88.16;100637.63;1762067;79;25853;-84
2022/07/11 00:17:36;;;;;;;3.25;1.82;;;;;;;12.22;88.26;100632.59;1743512;81;25820;-82
2022/07/11 00:20:03;;;;;;;3.62;2.25;;;;;;;12.21;88.15;100632.80;1774431;80;26559;-85
2022/07/11 00:22:30;;;;;;;3.37;1.92;;;;;;;12.19;88.16;100628.95;1753177;81;26415;-83
2022/07/11 00:24:56;;;;;;;1.85;1.50;;;;;;;12.17;88.22;100635.53;1749138;79;27528;-84
2022/07/11 00:27:22;;;;;;;4.03;1.60;;;;;;;12.14;88.26;100637.28;1780720;80;26390;-84
2022/07/11 00:29:49;;;;;;;1.50;1.37;;;;;;;12.11;88.37;100635.81;1761492;81;25834;-83
2022/07/11 00:32:15;;;;;;;3.87;1.37;;;;;;;12.10;88.39;100638.70;1761351;81;26376;-84
2022/07/11 00:34:41;;;;;;;3.40;1.50;;;;;;;12.08;88.33;100636.73;1757301;81;26347;-84
2022/07/11 00:37:08;;;;;;;3.25;1.57;;;;;;;12.06;88.36;100635.56;1779575;78;27597;-83
2022/07/11 00:39:34;;;;;;;5.70;1.42;;;;;;;12.05;88.26;100637.11;1758336;81;26081;-82
2022/07/11 00:42:00;;;;;;;2.27;1.30;;;;;;;12.02;88.22;100641.01;1761453;81;25778;-84
2022/07/11 00:44:27;;;;;;;4.72;1.40;;;;;;;12.01;88.34;100643.39;1776991;80;25804;-84
2022/07/11 00:46:53;;;;;;;6.85;1.92;;;;;;;12.00;88.25;100641.72;1761065;79;25433;-83
2022/07/11 00:49:20;;;;;;;4.60;1.95;;;;;;;11.99;88.28;100638.73;1787954;80;27423;-84
2022/07/11 00:51:46;;;;;;;4.28;1.75;;;;;;;11.98;88.16;100628.16;1765473;80;25827;-84
2022/07/11 00:54:14;;;;;;;2.52;1.35;;;;;;;11.96;88.31;100631.55;1788004;80;25388;-83
2022/07/11 00:56:41;;;;;;;8.08;1.60;;;;;;;11.93;88.46;100630.09;1780428;78;25728;-84
2022/07/11 00:59:08;;;;;;;3.80;1.80;;;;;;;11.91;88.52;100633.48;1785165;80;25269;-84
2022/07/11 01:01:39;;;;;;;5.80;2.10;;;;;;;11.87;88.60;100620.13;1759141;81;27459;-82
2022/07/11 01:04:05;;;;;;;5.28;2.02;;;;;;;11.87;88.72;100626.84;1755697;81;25869;-84
2022/07/11 01:06:32;;;;;;;5.55;2.10;;;;;;;11.84;88.79;100617.02;1751300;79;25931;-83
2022/07/11 01:08:58;;;;;;;4.75;1.85;;;;;;;11.81;88.87;100618.23;1744487;81;25919;-82
2022/07/11 01:11:27;;;;;;;8.65;2.12;;;;;;;11.80;89.01;100619.78;1723483;82;25792;-83
2022/07/11 01:13:55;;;;;;;9.55;2.30;;;;;;;11.78;89.20;100617.30;1785336;80;26909;-83
2022/07/11 01:16:22;;;;;;;4.83;2.08;;;;;;;11.79;89.37;100618.10;1759564;79;25805;-82
2022/07/11 01:18:52;;;;;;;3.70;2.00;;;;;;;11.75;89.32;100614.98;1775376;80;25946;-82
2022/07/11 01:21:38;;;;;;;7.78;1.40;;;;;;;11.74;89.55;100609.28;1774248;80;26599;-82
2022/07/11 01:24:06;;;;;;;9.20;2.20;;;;;;;11.75;89.71;100605.59;1773481;80;25858;-84
2022/07/11 01:26:33;;;;;;;3.87;1.75;;;;;;;11.73;89.55;100599.59;1757929;79;28313;-84
2022/07/11 01:29:14;;;;;;;4.12;1.70;;;;;;;11.74;89.57;100593.72;1762499;80;25964;-83
2022/07/11 01:31:44;;;;;;;2.25;1.70;;;;;;;11.74;89.54;100589.16;1776677;80;25836;-83
2022/07/11 01:34:11;;;;;;;8.43;2.10;;;;;;;11.73;89.56;100595.56;1754923;81;26795;-84
2022/07/11 01:36:37;;;;;;;9.50;2.12;;;;;;;11.74;89.48;100591.04;1754992;80;25305;-83
2022/07/11 01:39:04;;;;;;;7.47;2.02;;;;;;;11.73;89.36;100596.08;1754217;81;27527;-82
2022/07/11 01:41:30;;;;;;;5.53;1.77;;;;;;;11.73;89.44;100594.23;1759491;81;25820;-83
2022/07/11 01:43:57;;;;;;;4.62;1.90;;;;;;;11.69;89.32;100592.95;1765022;81;25862;-84
2022/07/11 01:46:23;;;;;;;4.90;1.90;;;;;;;11.65;89.35;100597.83;1763966;79;26606;-83
2022/07/11 01:48:49;;;;;;;10.95;2.20;;;;;;;11.62;89.27;100598.23;1747185;81;26506;-84
2022/07/11 01:51:16;;;;;;;14.28;2.20;;;;;;;11.60;89.24;100590.05;1786390;80;27516;-83
2022/07/11 01:53:42;;;;;;;8.13;2.10;;;;;;;11.57;89.32;100593.95;1766209;81;25903;-84
2022/07/11 01:56:08;;;;;;;5.22;1.90;;;;;;;11.55;89.61;100591.14;1779071;78;26010;-82
2022/07/11 01:58:35;;;;;;;6.90;1.90;;;;;;;11.54;89.83;100588.99;1753192;80;25897;-84
2022/07/11 02:01:01;;;;;;;3.98;2.15;;;;;;;11.51;89.88;100596.06;1757479;81;25795;-83
2022/07/11 02:03:27;;;;;;;10.40;2.35;;;;;;;11.50;89.96;100590.38;1788793;80;27442;-83
2022/07/11 02:05:53;;;;;;;4.78;2.47;;;;;;;11.48;90.08;100588.39;1761600;79;26168;-83
2022/07/11 02:08:20;;;;;;;5.45;2.42;;;;;;;11.47;90.23;100588.09;1752797;81;26252;-83
2022/07/11 02:10:51;;;;;;;9.08;2.33;;;;;;;11.46;90.33;100589.10;1784705;80;26683;-82
2022/07/11 02:13:21;;;;;;;4.67;2.27;;;;;;;11.46;90.40;100595.80;1758248;81;25306;-82
2022/07/11 02:15:50;;;;;;;10.28;2.67;;;;;;;11.46;90.53;100597.68;1776436;80;29434;-82
2022/07/11 02:18:19;;;;;;;5.78;2.50;;;;;;;11.49;90.73;100598.62;1764292;81;25729;-82
2022/07/11 02:20:45;;;;;;;7.35;2.30;;;;;;;11.53;90.90;100607.94;1772196;80;25313;-83
2022/07/11 02:23:12;;;;;;;6.92;2.75;;;;;;;11.55;91.03;100609.91;1768274;81;25766;-82
2022/07/11 02:25:39;;;;;;;11.40;2.72;;;;;;;11.55;91.13;100600.53;1759560;79;26534;-81
2022/07/11 02:28:08;;;;;;;5.87;2.15;;;;;;;11.59;91.25;100603.97;1767113;81;28343;-81
2022/07/11 02:30:39;;;;;;;10.50;4.10;;;;;;;11.64;91.56;100606.92;1753405;81;25675;-83
2022/07/11 02:33:07;;;;;;;8.80;2.77;;;;;;;11.64;91.68;100604.23;1779367;80;26023;-82
2022/07/11 02:35:35;;;;;;;8.63;2.87;;;;;;;11.67;91.84;100606.25;1752819;79;26585;-83
2022/07/11 02:38:01;;;;;;;10.13;2.35;;;;;;;11.69;91.97;100609.56;1773301;80;25356;-82
2022/07/11 02:40:28;;;;;;;7.87;2.50;;;;;;;11.69;92.04;100606.87;1748426;81;28270;-83
2022/07/11 02:42:55;;;;;;;6.08;2.75;;;;;;;11.70;92.15;100608.02;1757678;81;25847;-84
2022/07/11 02:45:22;;;;;;;9.93;2.90;;;;;;;11.74;92.31;100609.83;1782339;78;26516;-83
2022/07/11 02:47:48;;;;;;;14.35;4.15;;;;;;;11.78;92.49;100608.41;1760484;81;26650;-83
2022/07/11 02:50:15;;;;;;;5.00;3.00;;;;;;;11.81;92.56;100614.20;1774125;80;25833;-82
2022/07/11 02:52:42;;;;;;;13.90;3.00;;;;;;;11.86;92.65;100606.91;1753844;81;28015;-84
2022/07/11 02:55:11;;;;;;;11.08;3.33;;;;;;;11.90;92.79;100608.19;1781288;78;25904;-82
2022/07/11 02:57:40;;;;;;;14.28;3.10;;;;;;;11.91;93.00;100606.64;1751771;81;26432;-84
2022/07/11 03:00:13;;;;;;;11.25;2.90;;;;;;;11.92;93.09;100606.13;1778121;80;25783;-82
2022/07/11 03:02:39;;;;;;;7.20;2.95;;;;;;;11.94;93.27;100604.08;1775276;79;25765;-83
2022/07/11 03:05:06;;;;;;;10.58;3.40;;;;;;;11.95;93.40;100608.44;1756578;79;27448;-84
2022/07/11 03:07:33;;;;;;;8.63;3.35;;;;;;;11.98;93.53;100603.50;1762029;81;25850;-84
2022/07/11 03:09:59;;;;;;;11.90;3.10;;;;;;;12.00;93.64;100597.42;1752546;81;25857;-83
2022/07/11 03:12:25;;;;;;;4.40;3.12;;;;;;;12.03;93.92;100603.75;1755952;81;25913;-84
2022/07/11 03:14:52;;;;;;;4.50;3.27;;;;;;;12.06;93.87;100607.91;1780548;78;25787;-84
2022/07/11 03:17:19;;;;;;;8.38;2.80;;;;;;;12.09;94.07;100606.98;1758098;81;27428;-84
2022/07/11 03:19:46;;;;;;;7.08;3.10;;;;;;;12.10;94.09;100608.63;1759507;80;26259;-84
2022/07/11 03:22:15;;;;;;;12.65;3.10;;;;;;;12.13;94.15;100602.05;1774941;80;25833;-85
2022/07/11 03:24:42;;;;;;;9.40;3.83;;;;;;;12.17;94.16;100608.67;1782046;80;26584;-84
2022/07/11 03:27:10;;;;;;;18.37;3.77;;;;;;;12.20;94.18;100605.61;1760025;79;25606;-83
2022/07/11 03:29:36;;;;;;;14.85;3.92;;;;;;;12.21;94.21;100607.28;1771003;80;27436;-84
2022/07/11 03:32:04;;;;;;;4.62;3.27;;;;;;;12.22;94.24;100607.08;1780242;79;25910;-85
2022/07/11 03:34:30;;;;;;;8.78;3.95;;;;;;;12.23;94.36;100612.75;1773047;80;25325;-85
2022/07/11 03:36:56;;;;;;;8.85;4.12;;;;;;;12.24;94.32;100605.02;1771516;78;25790;-83
2022/07/11 03:39:23;;;;;;;9.33;4.00;;;;;;;12.27;94.49;100601.12;1750451;81;26420;-84
2022/07/11 03:41:49;;;;;;;11.78;4.28;;;;;;;12.27;94.57;100595.21;1742949;81;27473;-84
2022/07/11 03:44:15;;;;;;;11.10;4.37;;;;;;;12.28;94.69;100587.48;1774300;80;25840;-84
2022/07/11 03:46:42;;;;;;;17.92;5.20;;;;;;;12.31;94.67;100584.92;1749741;81;26569;-84
2022/07/11 03:49:10;;;;;;;11.97;3.72;;;;;;;12.35;94.74;100567.38;1755317;81;26590;-85
2022/07/11 03:51:36;;;;;;;5.95;3.52;;;;;;;12.38;94.87;100567.80;1759446;80;25768;-84
2022/07/11 03:54:03;;;;;;;5.85;3.12;;;;;;;12.43;94.91;100572.58;1763552;81;27606;-84
2022/07/11 03:56:30;;;;;;;7.42;3.40;;;;;;;12.43;95.08;100579.30;1764203;79;25957;-84
2022/07/11 03:58:56;;;;;;;6.83;3.20;;;;;;;12.41;95.09;100569.27;1763192;81;25857;-83
2022/07/11 04:01:22;;;;;;;8.15;3.22;;;;;;;12.44;95.24;100570.22;1754732;81;26623;-84
2022/07/11 04:03:49;;;;;;;9.18;3.30;;;;;;;12.46;95.32;100571.36;1769009;80;25877;-83
2022/07/11 04:06:16;;;;;;;5.15;2.98;;;;;;;12.48;95.41;100567.45;1752659;79;27432;-83
2022/07/11 04:08:43;;;;;;;7.15;2.95;;;;;;;12.51;95.50;100570.25;1756310;81;25864;-83
2022/07/11 04:11:10;;;;;;;8.45;3.12;;;;;;;12.53;95.59;100565.51;1771841;80;25977;-84
2022/07/11 04:13:36;;;;;;;7.35;2.75;;;;;;;12.54;95.72;100554.55;1740191;81;25817;-85
2022/07/11 04:16:03;;;;;;;9.75;2.98;;;;;;;12.58;95.86;100556.31;1741099;81;26618;-84
2022/07/11 04:18:29;;;;;;;7.30;2.70;;;;;;;12.59;95.80;100555.30;1768421;80;27468;-83
2022/07/11 04:20:55;;;;;;;5.05;2.83;;;;;;;12.61;95.93;100566.16;1770022;80;25994;-84
2022/07/11 04:23:21;;;;;;;11.00;3.77;;;;;;;12.62;96.06;100565.12;1749179;81;25851;-84
2022/07/11 04:25:48;;;;;;;8.65;3.02;;;;;;;12.63;96.12;100567.30;1769019;80;25958;-84
2022/07/11 04:28:15;;;;;;;8.93;2.40;;;;;;;12.61;96.12;100566.67;1746412;81;25876;-83
2022/07/11 04:30:43;;;;;;;7.83;2.90;;;;;;;12.61;96.17;100580.11;1742663;81;26167;-84
2022/07/11 04:33:09;;;;;;;8.05;3.00;;;;;;;12.59;96.27;100572.26;1774868;79;25984;-83
2022/07/11 04:35:35;;;;;;;8.33;3.00;;;;;;;12.59;96.29;100580.31;1780573;80;25324;-84
2022/07/11 04:38:02;;;;;;;8.25;2.50;;;;;;;12.61;96.42;100574.73;1749570;81;25854;-84
2022/07/11 04:40:28;;;;;;;9.23;2.45;;;;;;;12.60;96.62;100579.27;1759705;81;25918;-82
2022/07/11 04:42:55;;;;;;;7.80;2.52;;;;;;;12.60;96.60;100583.30;1783550;80;28249;-85
2022/07/11 04:45:21;;;;;;;8.20;2.70;;;;;;;12.59;96.58;100579.48;1748416;81;25357;-85
2022/07/11 04:47:47;;;;;;;4.78;2.17;;;;;;;12.61;96.80;100575.57;1751739;81;25866;-85
2022/07/11 04:50:14;;;;;;;5.97;2.30;;;;;;;12.60;96.95;100565.84;1777295;80;26551;-84
2022/07/11 04:52:42;;;;;;;5.62;2.40;;;;;;;12.62;97.01;100571.00;1742131;81;25841;-84
2022/07/11 04:55:08;;;;;;;8.60;2.72;;;;;;;12.62;97.20;100569.15;1754325;81;27484;-85
2022/07/11 04:57:35;;;;;;;8.45;2.87;;;;;;;12.64;97.24;100565.75;1778773;80;25811;-84
2022/07/11 05:00:03;;;;;;;6.78;2.90;;;;;;;12.70;97.61;100568.16;1751767;81;25354;-85
2022/07/11 05:02:29;;;;;;;8.80;4.03;;;;;;;12.74;97.64;100569.41;1747684;81;25843;-84
2022/07/11 05:04:55;;;;;;;8.88;2.72;;;;;;;12.76;97.77;100583.48;1748959;81;25804;-85
2022/07/11 05:07:21;;;;;;;8.35;2.77;;;;;;;12.81;97.77;100599.30;1741700;81;27461;-83
2022/07/11 05:09:48;;;;;;;6.90;2.55;;;;;;;12.84;97.66;100599.42;1777798;80;25358;-83
2022/07/11 05:12:14;;;;;;;14.28;2.80;;;;;;;12.87;97.66;100595.80;1759453;81;26355;-84
2022/07/11 05:14:40;;;;;;;9.05;3.12;;;;;;;12.90;97.70;100608.02;1746126;81;26561;-84
2022/07/11 05:17:06;;;;;;;15.13;3.70;;;;;;;12.93;97.66;100608.47;1761399;80;25913;-84
2022/07/11 05:19:33;;;;;;;10.93;4.15;;;;;;;12.97;97.69;100603.00;1765254;81;27498;-85
2022/07/11 05:21:59;;;;;;;8.15;3.55;;;;;;;12.99;97.45;100607.66;1760886;80;26181;-84
2022/07/11 05:24:26;;;;;;;7.40;3.47;;;;;;;13.03;97.52;100604.03;1782288;80;25916;-84
2022/07/11 05:26:52;;;;;;;9.05;3.65;;;;;;;13.05;97.48;100611.41;1759973;81;25752;-84
2022/07/11 05:29:18;;;;;;;6.40;4.00;;;;;;;13.07;97.53;100604.81;1777822;80;25747;-84
2022/07/11 05:31:50;;;;;;;10.85;3.58;;;;;;;13.08;97.53;100605.64;1757264;81;28689;-85
2022/07/11 05:34:13;;;;;;;11.35;5.28;;;;;;;13.11;97.83;100613.29;1776752;80;25737;-84
2022/07/11 05:36:39;;;;;;;12.93;5.83;;;;;;;13.14;97.80;100612.39;1764945;79;26611;-83
2022/07/11 05:39:06;;;;;;;10.93;5.05;;;;;;;13.15;97.79;100619.41;1769380;80;25802;-84
2022/07/11 05:41:32;;;;;;;10.95;4.08;;;;;;;13.17;97.81;100617.88;1753082;81;25862;-83
2022/07/11 05:43:58;;;;;;;11.33;3.90;;;;;;;13.20;97.95;100622.00;1755449;81;28284;-85
2022/07/11 05:46:24;;;;;;;9.68;4.00;;;;;;;13.22;98.13;100622.63;1756723;79;25799;-83
2022/07/11 05:48:51;;;;;;;11.95;5.25;;;;;;;13.23;98.04;100626.48;1755552;81;25921;-86
2022/07/11 05:51:18;;;;;;;11.35;5.40;;;;;;;13.24;98.10;100624.09;1757529;81;26602;-83
2022/07/11 05:53:45;;;;;;;10.80;5.50;;;;;;;13.26;98.19;100626.59;1749290;81;26004;-83
2022/07/11 05:56:11;;;;;;;12.98;5.17;;;;;;;13.28;98.30;100628.56;1783655;78;27488;-84
2022/07/11 05:58:38;;;;;;;9.25;5.53;;;;;;;13.29;98.20;100624.31;1754975;81;25677;-85
2022/07/11 06:01:04;;;;;;;12.75;5.90;;;;;;;13.26;98.30;100616.64;1764962;81;25932;-84
2022/07/11 06:03:30;;;;;;;11.22;5.78;;;;;;;13.27;98.23;100619.66;1782742;80;25767;-83
2022/07/11 06:05:57;;;;;;;12.25;6.20;;;;;;;13.29;98.35;100626.17;1782559;78;25806;-84
2022/07/11 06:08:41;;;;;;;13.85;7.97;;;;;;;13.32;98.42;100618.55;1765209;81;28388;-85
2022/07/11 06:11:11;;;;;;;10.55;6.00;;;;;;;13.37;98.55;100621.43;1771824;80;25818;-84
2022/07/11 06:13:39;;;;;;;11.18;6.10;;;;;;;13.43;98.55;100622.49;1770969;80;25924;-85
2022/07/11 06:16:07;;;;;;;12.37;5.65;;;;;;;13.49;98.59;100625.70;1773222;78;25937;-84
2022/07/11 06:18:35;;;;;;;9.53;5.75;;;;;;;13.51;98.55;100623.63;1750404;81;25854;-84
2022/07/11 06:21:03;;;;;;;13.38;5.58;;;;;;;13.53;98.53;100626.44;1723824;82;27453;-83
2022/07/11 06:23:29;;;;;;;9.43;5.35;;;;;;;13.58;98.93;100627.98;1778971;80;25904;-84
2022/07/11 06:25:57;;;;;;;11.63;6.33;;;;;;;13.63;98.99;100624.16;1776140;78;25841;-85
2022/07/11 06:28:23;;;;;;;12.10;6.08;;;;;;;13.69;99.29;100623.84;1781003;80;25748;-84
2022/07/11 06:30:50;;;;;;;17.73;12.07;;;;;;;13.75;99.36;100619.81;1746380;81;25945;-87
2022/07/11 06:33:20;;;;;;;15.30;8.93;;;;;;;13.84;99.46;100622.61;1741896;81;27527;-77
2022/07/11 06:35:47;;;;;;;12.67;9.20;;;;;;;13.96;99.55;100629.56;1756689;81;25953;-77
2022/07/11 06:38:15;;;;;;;14.60;9.55;;;;;;;13.96;99.55;100629.56;1770715;80;25942;-82
2022/07/11 06:40:43;;;;;;;11.35;10.23;;;;;;;14.04;100.00;100621.27;1743347;81;25950;-82
2022/07/11 06:43:10;;;;;;;14.80;11.10;;;;;;;14.10;99.32;100628.51;1744174;81;25361;-82
2022/07/11 06:45:37;;;;;;;16.73;11.12;;;;;;;14.18;99.57;100621.55;1758392;79;27452;-83
2022/07/11 06:48:05;;;;;;;12.65;10.25;;;;;;;14.28;99.62;100621.97;1759176;81;26097;-83
2022/07/11 06:50:32;;;;;;;13.93;10.65;;;;;;;14.43;99.81;100620.41;1756671;81;25982;-82
2022/07/11 06:52:58;;;;;;;14.13;10.53;;;;;;;14.56;99.62;100625.23;1763922;81;26573;-83
2022/07/11 06:55:25;;;;;;;11.50;10.30;;;;;;;14.66;99.71;100618.05;1782836;78;25842;-83
2022/07/11 06:57:51;;;;;;;12.70;9.13;;;;;;;14.78;99.58;100623.63;1762742;80;28344;-82
2022/07/11 07:00:18;;;;;;;11.45;9.48;;;;;;;14.83;98.48;100621.94;1753613;81;25576;-83
2022/07/11 07:02:45;;;;;;;14.93;10.20;;;;;;;14.91;98.50;100616.80;1718595;82;25902;-83
2022/07/11 07:05:12;;;;;;;12.30;8.75;;;;;;;14.99;98.16;100617.39;1700311;82;26247;-83
2022/07/11 07:07:39;;;;;;;9.70;8.85;;;;;;;15.06;97.80;100625.45;1734430;81;25327;-82
2022/07/11 07:10:06;;;;;;;9.23;7.90;;;;;;;15.05;96.04;100624.64;1746900;81;27607;-83
2022/07/11 07:12:39;;;;;;;9.30;8.40;;;;;;;15.02;95.54;100625.58;1702037;82;25355;-83
2022/07/11 07:15:06;;;;;;;13.40;10.20;;;;;;;15.04;95.53;100627.02;1738430;81;25618;-83
2022/07/11 07:17:33;;;;;;;10.75;8.70;;;;;;;15.09;95.19;100627.73;1736244;81;26779;-83
2022/07/11 07:19:59;;;;;;;8.98;8.15;;;;;;;15.13;95.04;100631.13;1728014;81;26544;-83
2022/07/11 07:22:25;;;;;;;9.35;7.25;;;;;;;15.19;94.99;100632.12;1728208;82;27430;-83
2022/07/11 07:24:51;;;;;;;10.20;9.30;;;;;;;15.21;94.15;100631.39;1734982;81;25785;-82
2022/07/11 07:27:18;;;;;;;9.28;8.30;;;;;;;15.24;94.24;100629.63;1736042;81;25903;-83
2022/07/11 07:29:44;;;;;;;9.85;8.85;;;;;;;15.31;94.70;100634.47;1731929;82;25766;-83
2022/07/11 07:32:10;;;;;;;9.63;7.47;;;;;;;15.34;94.35;100638.91;1739218;81;25909;-83
2022/07/11 07:34:37;;;;;;;8.75;7.28;;;;;;;15.35;93.22;100635.69;1705888;83;28058;-83
2022/07/11 07:37:03;;;;;;;9.00;7.72;;;;;;;15.33;93.09;100635.88;1758048;80;25768;-84
2022/07/11 07:39:30;;;;;;;6.55;6.05;;;;;;;15.33;93.24;100637.23;1758098;81;26244;-83
2022/07/11 07:41:58;;;;;;;7.83;5.03;;;;;;;15.32;92.32;100625.31;1754190;81;25800;-83
2022/07/11 07:44:24;;;;;;;5.87;4.55;;;;;;;15.26;90.34;100632.93;1762873;80;25782;-83
2022/07/11 07:46:51;;;;;;;4.20;3.80;;;;;;;15.26;90.69;100630.23;1760365;80;27434;-83
2022/07/11 07:49:17;;;;;;;7.83;3.95;;;;;;;15.29;90.47;100625.22;1783580;80;25755;-83
2022/07/11 07:51:43;;;;;;;4.55;4.00;;;;;;;15.31;88.90;100636.63;1778836;80;25858;-83
2022/07/11 07:54:10;;;;;;;4.15;3.85;;;;;;;15.35;89.96;100631.09;1783182;80;26543;-83
2022/07/11 07:56:36;;;;;;;5.75;4.00;;;;;;;15.42;89.85;100631.05;1779761;78;25956;-83
2022/07/11 07:59:02;;;;;;;4.65;4.35;;;;;;;15.51;90.17;100628.95;1751493;81;27416;-83
2022/07/11 08:01:34;;;;;;;4.75;4.35;;;;;;;15.58;89.88;100638.68;1763869;81;25779;-83
2022/07/11 08:04:09;;;;;;;6.15;4.40;;;;;;;15.66;89.61;100639.77;1781951;80;25745;-84
2022/07/11 08:06:37;;;;;;;4.40;4.00;;;;;;;15.76;89.81;100636.04;1726717;81;25864;-84
2022/07/11 08:09:05;;;;;;;4.42;3.62;;;;;;;15.83;89.43;100633.29;1777396;80;26474;-84
2022/07/11 08:11:33;;;;;;;4.85;3.30;;;;;;;15.90;89.24;100630.02;1754905;81;27475;-84
2022/07/11 08:14:00;;;;;;;6.40;3.02;;;;;;;15.96;88.91;100634.53;1755414;81;25875;-84
2022/07/11 08:16:31;;;;;;;2.42;2.22;;;;;;;15.97;88.04;100631.61;1782943;78;25991;-83
2022/07/11 08:19:00;;;;;;;5.03;2.35;;;;;;;15.95;86.88;100631.55;1755063;81;25828;-84
2022/07/11 08:21:27;;;;;;;3.12;2.85;;;;;;;15.97;87.57;100626.20;1780971;80;25842;-83
2022/07/11 08:23:54;;;;;;;3.60;3.20;;;;;;;16.05;87.26;100632.70;1765186;81;27441;-84
2022/07/11 08:26:21;;;;;;;3.67;2.80;;;;;;;16.08;87.22;100632.24;1786741;78;26075;-83
2022/07/11 08:31:54;;;;;;;5.22;3.70;;;;;;;16.34;87.32;100631.16;1758408;78;26783;-85
2022/07/11 08:34:20;;;;;;;4.75;4.10;;;;;;;16.62;87.04;100627.47;1764656;79;25528;-84
2022/07/11 08:36:47;;;;;;;6.55;4.70;;;;;;;16.81;87.85;100626.92;1752262;78;27610;-84
2022/07/11 08:42:03;;;;;;;6.75;3.95;;;;;;;17.32;86.82;100625.13;1695867;79;25920;-87
2022/07/11 08:44:29;;;;;;;4.67;3.20;;;;;;;17.41;86.03;100624.56;1697026;83;25774;-86
2022/07/11 08:46:57;;;;;;;3.45;2.52;;;;;;;17.34;82.36;100619.77;1701738;83;25855;-84
2022/07/11 08:49:26;;;;;;;3.02;2.62;;;;;;;17.31;82.04;100619.41;1697704;83;27719;-85
2022/07/11 08:54:52;;;;;;;4.25;2.50;;;;;;;17.24;81.25;100618.66;1678936;83;26378;-86
2022/07/11 08:57:19;;;;;;;4.05;2.52;;;;;;;17.32;81.23;100614.30;1673556;84;26535;-86
2022/07/11 08:59:48;;;;;;;2.42;2.10;;;;;;;17.39;81.12;100617.20;1680020;84;25878;-85
2022/07/11 09:02:19;;;;;;;1.87;1.55;;;;;;;17.50;80.36;100608.84;1678371;84;28366;-86
2022/07/11 09:04:46;;;;;;;1.35;1.15;;;;;;;17.57;78.33;100609.58;1661054;85;25781;-85
2022/07/11 09:07:13;;;;;;;1.55;1.20;;;;;;;17.51;76.71;100606.45;1658400;85;26658;-85
2022/07/11 09:09:40;;;;;;;2.05;1.25;;;;;;;17.53;77.37;100599.75;1657191;85;25786;-86
2022/07/11 09:12:15;;;;;;;2.02;1.62;;;;;;;17.54;76.86;100609.51;1661021;85;25600;-86
2022/07/11 09:14:49;;;;;;;3.02;2.30;;;;;;;17.43;77.58;100607.55;1653474;86;27478;-85
2022/07/11 09:17:30;;;;;;;2.55;1.90;;;;;;;17.24;76.92;100609.19;1661077;85;26007;-85
2022/07/11 09:19:54;;;;;;;3.80;2.35;;;;;;;17.07;78.27;100613.07;1658305;85;25900;-86
2022/07/11 09:25:23;;;;;;;1.98;1.50;;;;;;;16.89;79.28;100605.80;1629070;87;25929;-84
2022/07/11 09:27:53;;;;;;;2.30;1.67;;;;;;;16.88;79.51;100612.80;1634233;87;27503;-86
2022/07/11 09:30:29;;;;;;;3.40;2.83;;;;;;;16.84;78.73;100610.25;1666108;85;33311;-85
2022/07/11 09:33:03;;;;;;;2.40;2.20;;;;;;;16.84;79.25;100615.66;1615335;88;25883;-84
2022/07/11 09:35:34;;;;;;;2.58;2.10;;;;;;;16.88;79.00;100615.51;1655904;86;25790;-86
2022/07/11 09:38:05;;;;;;;2.50;1.98;;;;;;;16.95;79.95;100618.97;1664821;85;26017;-84
2022/07/11 09:40:31;;;;;;;2.00;1.90;;;;;;;17.03;79.60;100621.34;1658376;86;27484;-86
2022/07/11 09:42:59;;;;;;;2.10;2.00;;;;;;;17.06;79.37;100621.42;1659473;85;26097;-84
2022/07/11 09:45:30;;;;;;;2.12;1.92;;;;;;;17.08;79.10;100621.50;1662370;85;25883;-84
2022/07/11 09:47:58;;;;;;;2.25;2.05;;;;;;;17.12;79.67;100619.16;1662694;86;26271;-86
2022/07/11 09:50:28;;;;;;;4.35;2.20;;;;;;;17.19;79.73;100618.03;1652216;85;25891;-86
2022/07/11 09:53:07;;;;;;;3.17;2.05;;;;;;;17.22;79.76;100611.30;1625107;85;28339;-85
2022/07/11 09:55:40;;;;;;;3.02;2.47;;;;;;;17.27;78.30;100616.34;1637757;86;26271;-86
2022/07/11 09:58:10;;;;;;;3.20;2.00;;;;;;;17.31;78.24;100608.06;1644099;86;25906;-84
2022/07/11 10:00:39;;;;;;;3.15;2.37;;;;;;;17.39;78.06;100611.78;1642782;86;26065;-84
2022/07/11 10:03:07;;;;;;;2.50;2.30;;;;;;;17.50;78.91;100603.43;1644022;86;26008;-84
2022/07/11 10:05:34;;;;;;;2.65;2.45;;;;;;;17.63;79.04;100606.77;1643305;86;26929;-83
2022/07/11 10:08:02;;;;;;;3.10;2.80;;;;;;;17.74;78.08;100603.78;1640253;86;25921;-84
2022/07/11 10:10:31;;;;;;;2.62;2.40;;;;;;;17.74;76.81;100598.36;1642877;87;26231;-85
2022/07/11 10:12:58;;;;;;;2.95;2.50;;;;;;;17.69;76.95;100606.36;1639947;87;25914;-85
2022/07/11 10:15:34;;;;;;;2.58;1.98;;;;;;;17.66;77.14;100600.87;1643253;87;25789;-84
2022/07/11 10:18:07;;;;;;;1.85;1.55;;;;;;;17.66;76.94;100609.00;1642483;86;27490;-84
2022/07/11 10:20:50;;;;;;;3.47;1.45;;;;;;;17.82;76.33;100602.60;1643454;86;25938;-84
2022/07/11 10:23:43;;;;;;;3.45;1.20;;;;;;;17.93;75.64;100596.37;1636999;87;25829;-84
2022/07/11 10:26:23;;;;;;;0.45;0.45;;;;;;;18.00;72.19;100597.93;1640141;87;25900;-83
2022/07/11 10:29:09;;;;;;;0.40;0.28;;;;;;;17.99;69.58;100603.04;1643147;86;25975;-84
2022/07/11 10:31:36;;;;;;;1.55;0.20;;;;;;;17.95;69.63;100603.22;1641309;87;27467;-84
2022/07/11 10:34:10;;;;;;;0.25;0.20;;;;;;;18.08;69.52;100598.09;1642964;87;26563;-83
2022/07/11 10:36:44;;;;;;;0.70;0.70;;;;;;;18.22;70.14;100585.97;1624894;87;25941;-84
2022/07/11 10:39:26;;;;;;;0.70;0.45;;;;;;;18.35;69.62;100582.98;1639709;87;26124;-83
2022/07/11 10:41:57;;;;;;;2.67;1.02;;;;;;;18.39;67.09;100599.09;1643052;87;25811;-83
2022/07/11 10:44:26;;;;;;;2.92;0.78;;;;;;;18.26;67.38;100602.86;1643408;86;27465;-84
2022/07/11 10:46:53;;;;;;;1.05;0.57;;;;;;;18.00;67.85;100607.94;1643538;87;25918;-83
2022/07/11 10:49:43;;;;;;;0.30;0.30;;;;;;;17.81;67.40;100614.52;1643285;86;25852;-84
2022/07/11 10:52:10;;;;;;;0.50;0.40;;;;;;;17.69;68.72;100618.55;1643546;87;26210;-83
2022/07/11 10:55:06;;;;;;;0.30;0.30;;;;;;;17.80;70.21;100607.44;1643084;87;25368;-84
2022/07/11 10:57:48;;;;;;;0.42;0.30;;;;;;;17.97;69.98;100613.81;1639847;86;27460;-84
2022/07/11 11:00:21;;;;;;;0.93;0.40;;;;;;;18.12;69.23;100590.61;1636570;87;26139;-84
2022/07/11 11:03:07;;;;;;;0.95;0.50;;;;;;;18.29;71.00;100593.42;1637792;87;25948;-84
2022/07/11 11:05:53;;;;;;;0.70;0.40;;;;;;;18.45;70.38;100595.46;1627515;86;25996;-84
2022/07/11 11:08:42;;;;;;;0.85;0.50;;;;;;;18.62;71.31;100596.37;1628437;87;26109;-84
2022/07/11 11:11:23;;;;;;;1.12;0.50;;;;;;;18.61;70.41;100607.45;1639437;86;27469;-84
2022/07/11 11:14:18;;;;;;;0.80;0.62;;;;;;;18.49;68.46;100608.84;1638784;86;25933;-84
2022/07/11 11:16:45;;;;;;;1.42;0.70;;;;;;;18.31;69.45;100606.22;1643043;86;25978;-83
2022/07/11 11:19:49;;;;;;;1.07;0.47;;;;;;;18.28;71.19;100612.13;1645002;86;25931;-83
2022/07/11 11:22:18;;;;;;;2.83;0.60;;;;;;;18.25;70.18;100612.59;1591929;89;26593;-84
2022/07/11 11:24:47;;;;;;;1.22;0.50;;;;;;;18.14;71.37;100605.28;1634549;86;27597;-83
2022/07/11 11:27:22;;;;;;;1.47;0.60;;;;;;;18.17;71.92;100613.78;1643142;86;25857;-83
2022/07/11 11:29:54;;;;;;;2.25;0.50;;;;;;;18.17;71.62;100615.66;1643401;86;25816;-85
2022/07/11 11:32:24;;;;;;;2.42;0.50;;;;;;;18.07;71.01;100620.30;1642971;86;26663;-84
2022/07/11 11:34:51;;;;;;;0.78;0.40;;;;;;;17.97;70.09;100623.30;1643299;86;26529;-84
2022/07/11 11:37:18;;;;;;;0.85;0.55;;;;;;;17.88;69.83;100620.11;1639500;87;27464;-84
2022/07/11 11:39:44;;;;;;;2.98;0.70;;;;;;;17.84;69.64;100622.16;1643099;86;26168;-84
2022/07/11 11:42:15;;;;;;;0.50;0.30;;;;;;;17.83;69.34;100617.30;1643061;86;25929;-84